Wilsie, West Virginia
Current Conditions -  °F | °C
As of 10:35 PM on Saturday 22 Nov 2014 (Local Time) from KW22 Reporting Station
Broken Clouds Broken Clouds  
Wind Chill:   Ceiling: 9500
Heat Index:   Visibility: 10mi
Dew Point: -6°   Wind: 0mph
Humidity: 34%   Direction: NA
Pressure: 30.15"   Gusts: NA
Location:  38.69°N, 80.89°W
Report Text: KW22 230335Z AUTO 00000KT 10SM BKN095 09/M06 A3015 RMK AO2
Loading
Personal Weather Stations






























Interactive Weather Map New forecast layout! Learn more

10-Day Weather Forecast

Advertisements
Track Severe Weather on mobile